sensor_id;sensor_type;location;lat;lon;timestamp;temperature;humidity
25208;DHT22;13153;52.316;21.166;2024-03-07T00:00:07;3.20;26.30
25208;DHT22;13153;52.316;21.166;2024-03-07T00:02:48;3.20;96.00
25208;DHT22;13153;52.316;21.166;2024-03-07T00:05:16;3.20;16.30
25208;DHT22;13153;52.316;21.166;2024-03-07T00:07:43;3.10;16.00
25208;DHT22;13153;52.316;21.166;2024-03-07T00:10:10;3.10;24.40
25208;DHT22;13153;52.316;21.166;2024-03-07T00:12:37;3.00;56.20
25208;DHT22;13153;52.316;21.166;2024-03-07T00:15:05;3.00;99.90
25208;DHT22;13153;52.316;21.166;2024-03-07T00:17:32;3.00;99.90
25208;DHT22;13153;52.316;21.166;2024-03-07T00:19:58;3.00;99.90
25208;DHT22;13153;52.316;21.166;2024-03-07T00:22:24;2.90;99.90
25208;DHT22;13153;52.316;21.166;2024-03-07T00:24:52;2.90;99.90
25208;DHT22;13153;52.316;21.166;2024-03-07T00:27:18;2.90;99.90
25208;DHT22;13153;52.316;21.166;2024-03-07T00:29:46;2.90;1.00
25208;DHT22;13153;52.316;21.166;2024-03-07T00:32:21;2.90;1.00
25208;DHT22;13153;52.316;21.166;2024-03-07T00:34:48;2.80;1.00
25208;DHT22;13153;52.316;21.166;2024-03-07T00:37:17;2.70;1.00
25208;DHT22;13153;52.316;21.166;2024-03-07T00:39:43;2.70;1.00
25208;DHT22;13153;52.316;21.166;2024-03-07T00:42:09;2.70;83.20
25208;DHT22;13153;52.316;21.166;2024-03-07T00:44:35;2.60;1.00
25208;DHT22;13153;52.316;21.166;2024-03-07T00:47:02;2.60;1.00
25208;DHT22;13153;52.316;21.166;2024-03-07T00:49:29;2.60;99.90
25208;DHT22;13153;52.316;21.166;2024-03-07T00:51:56;2.60;1.00
25208;DHT22;13153;52.316;21.166;2024-03-07T00:54:23;2.60;99.90
25208;DHT22;13153;52.316;21.166;2024-03-07T00:56:48;2.50;1.00
25208;DHT22;13153;52.316;21.166;2024-03-07T00:59:17;2.40;1.00
25208;DHT22;13153;52.316;21.166;2024-03-07T01:01:43;2.40;1.00
25208;DHT22;13153;52.316;21.166;2024-03-07T01:04:08;2.30;99.90
25208;DHT22;13153;52.316;21.166;2024-03-07T01:06:35;2.30;7.90
25208;DHT22;13153;52.316;21.166;2024-03-07T01:09:04;2.30;99.90
25208;DHT22;13153;52.316;21.166;2024-03-07T01:11:30;2.30;1.00
25208;DHT22;13153;52.316;21.166;2024-03-07T01:13:56;2.30;19.10
25208;DHT22;13153;52.316;21.166;2024-03-07T01:16:22;2.30;1.00
25208;DHT22;13153;52.316;21.166;2024-03-07T01:18:48;2.30;99.90
25208;DHT22;13153;52.316;21.166;2024-03-07T01:21:14;2.20;99.90
25208;DHT22;13153;52.316;21.166;2024-03-07T01:23:40;2.20;1.00
25208;DHT22;13153;52.316;21.166;2024-03-07T01:26:06;2.20;1.00
25208;DHT22;13153;52.316;21.166;2024-03-07T01:28:34;2.10;1.00
25208;DHT22;13153;52.316;21.166;2024-03-07T01:31:00;2.10;1.00
25208;DHT22;13153;52.316;21.166;2024-03-07T01:33:26;2.10;1.00
25208;DHT22;13153;52.316;21.166;2024-03-07T01:35:52;2.20;1.00
25208;DHT22;13153;52.316;21.166;2024-03-07T01:38:18;2.10;99.90
25208;DHT22;13153;52.316;21.166;2024-03-07T01:40:44;2.00;1.00
25208;DHT22;13153;52.316;21.166;2024-03-07T01:43:10;1.90;1.00
25208;DHT22;13153;52.316;21.166;2024-03-07T01:45:39;1.80;1.00
25208;DHT22;13153;52.316;21.166;2024-03-07T01:48:05;1.70;1.00
25208;DHT22;13153;52.316;21.166;2024-03-07T01:50:35;1.60;51.60
25208;DHT22;13153;52.316;21.166;2024-03-07T01:53:06;1.60;99.90
25208;DHT22;13153;52.316;21.166;2024-03-07T01:55:35;1.70;1.00
25208;DHT22;13153;52.316;21.166;2024-03-07T01:58:02;1.70;1.00
25208;DHT22;13153;52.316;21.166;2024-03-07T02:00:31;1.80;1.00
25208;DHT22;13153;52.316;21.166;2024-03-07T02:02:56;1.70;99.90
25208;DHT22;13153;52.316;21.166;2024-03-07T02:05:23;1.70;99.90
25208;DHT22;13153;52.316;21.166;2024-03-07T02:07:50;1.70;1.00
25208;DHT22;13153;52.316;21.166;2024-03-07T02:10:16;1.70;1.00
25208;DHT22;13153;52.316;21.166;2024-03-07T02:12:43;1.60;1.00
25208;DHT22;13153;52.316;21.166;2024-03-07T02:15:10;1.50;1.00
25208;DHT22;13153;52.316;21.166;2024-03-07T02:17:37;1.50;1.00
25208;DHT22;13153;52.316;21.166;2024-03-07T02:20:04;1.40;99.90
25208;DHT22;13153;52.316;21.166;2024-03-07T02:22:33;1.30;1.00
25208;DHT22;13153;52.316;21.166;2024-03-07T02:24:59;1.40;99.90
25208;DHT22;13153;52.316;21.166;2024-03-07T02:27:24;1.30;1.00
25208;DHT22;13153;52.316;21.166;2024-03-07T02:29:50;1.40;1.00
25208;DHT22;13153;52.316;21.166;2024-03-07T02:32:16;1.30;1.00
25208;DHT22;13153;52.316;21.166;2024-03-07T02:34:43;1.20;1.00
25208;DHT22;13153;52.316;21.166;2024-03-07T02:37:09;1.20;1.00
25208;DHT22;13153;52.316;21.166;2024-03-07T02:39:36;1.10;99.90
25208;DHT22;13153;52.316;21.166;2024-03-07T02:42:02;1.20;99.90
25208;DHT22;13153;52.316;21.166;2024-03-07T02:44:28;1.10;99.90
25208;DHT22;13153;52.316;21.166;2024-03-07T02:46:55;1.00;1.00
25208;DHT22;13153;52.316;21.166;2024-03-07T02:49:21;1.00;1.00
25208;DHT22;13153;52.316;21.166;2024-03-07T02:51:47;1.00;1.00
25208;DHT22;13153;52.316;21.166;2024-03-07T02:54:13;1.00;1.00
25208;DHT22;13153;52.316;21.166;2024-03-07T02:56:39;1.00;1.00
25208;DHT22;13153;52.316;21.166;2024-03-07T02:59:05;1.00;1.00
25208;DHT22;13153;52.316;21.166;2024-03-07T03:01:32;1.10;1.00
25208;DHT22;13153;52.316;21.166;2024-03-07T03:03:58;1.10;1.00
25208;DHT22;13153;52.316;21.166;2024-03-07T03:06:24;1.00;1.00
25208;DHT22;13153;52.316;21.166;2024-03-07T03:08:50;0.90;1.00
25208;DHT22;13153;52.316;21.166;2024-03-07T03:11:16;1.00;99.90
25208;DHT22;13153;52.316;21.166;2024-03-07T03:13:42;1.00;1.00
25208;DHT22;13153;52.316;21.166;2024-03-07T03:16:08;0.90;1.00
25208;DHT22;13153;52.316;21.166;2024-03-07T03:18:35;0.80;99.90
25208;DHT22;13153;52.316;21.166;2024-03-07T03:21:02;0.90;99.90
25208;DHT22;13153;52.316;21.166;2024-03-07T03:23:29;0.80;99.90
25208;DHT22;13153;52.316;21.166;2024-03-07T03:25:55;0.80;99.90
25208;DHT22;13153;52.316;21.166;2024-03-07T03:28:22;0.80;99.90
25208;DHT22;13153;52.316;21.166;2024-03-07T03:30:49;0.80;99.90
25208;DHT22;13153;52.316;21.166;2024-03-07T03:33:16;0.90;99.90
25208;DHT22;13153;52.316;21.166;2024-03-07T03:35:42;0.80;99.90
25208;DHT22;13153;52.316;21.166;2024-03-07T03:38:08;0.80;99.90
25208;DHT22;13153;52.316;21.166;2024-03-07T03:40:35;0.80;99.90
25208;DHT22;13153;52.316;21.166;2024-03-07T03:43:01;0.90;99.90
25208;DHT22;13153;52.316;21.166;2024-03-07T03:45:27;0.90;99.90
25208;DHT22;13153;52.316;21.166;2024-03-07T03:47:53;0.90;99.90
25208;DHT22;13153;52.316;21.166;2024-03-07T03:50:20;0.90;99.90
25208;DHT22;13153;52.316;21.166;2024-03-07T03:52:49;0.80;99.90
25208;DHT22;13153;52.316;21.166;2024-03-07T03:55:16;0.80;99.90
25208;DHT22;13153;52.316;21.166;2024-03-07T03:57:43;0.70;1.00
25208;DHT22;13153;52.316;21.166;2024-03-07T04:00:10;0.50;1.00
25208;DHT22;13153;52.316;21.166;2024-03-07T04:02:41;0.50;1.00
25208;DHT22;13153;52.316;21.166;2024-03-07T04:05:14;0.40;1.00
25208;DHT22;13153;52.316;21.166;2024-03-07T04:07:41;0.30;1.00
25208;DHT22;13153;52.316;21.166;2024-03-07T04:10:09;0.30;1.00
25208;DHT22;13153;52.316;21.166;2024-03-07T04:12:36;0.20;1.00
25208;DHT22;13153;52.316;21.166;2024-03-07T04:15:08;0.20;1.00
25208;DHT22;13153;52.316;21.166;2024-03-07T04:17:37;0.10;1.00
25208;DHT22;13153;52.316;21.166;2024-03-07T04:20:04;0.20;1.00
25208;DHT22;13153;52.316;21.166;2024-03-07T04:22:35;0.10;1.00
25208;DHT22;13153;52.316;21.166;2024-03-07T04:25:04;0.10;1.00
25208;DHT22;13153;52.316;21.166;2024-03-07T04:27:33;0.00;1.00
25208;DHT22;13153;52.316;21.166;2024-03-07T04:30:05;0.00;1.00
25208;DHT22;13153;52.316;21.166;2024-03-07T04:32:33;0.00;1.00
25208;DHT22;13153;52.316;21.166;2024-03-07T04:35:03;-0.10;1.00
25208;DHT22;13153;52.316;21.166;2024-03-07T04:37:36;-0.10;1.00
25208;DHT22;13153;52.316;21.166;2024-03-07T04:40:07;-0.10;1.00
25208;DHT22;13153;52.316;21.166;2024-03-07T04:42:45;0.00;1.00
25208;DHT22;13153;52.316;21.166;2024-03-07T04:45:14;0.00;1.00
25208;DHT22;13153;52.316;21.166;2024-03-07T04:47:40;0.00;1.00
25208;DHT22;13153;52.316;21.166;2024-03-07T04:50:13;-0.10;1.00
25208;DHT22;13153;52.316;21.166;2024-03-07T04:52:42;0.00;1.00
25208;DHT22;13153;52.316;21.166;2024-03-07T04:55:09;-0.10;1.00
25208;DHT22;13153;52.316;21.166;2024-03-07T04:57:36;-0.10;1.00
25208;DHT22;13153;52.316;21.166;2024-03-07T05:00:09;-0.10;1.00
25208;DHT22;13153;52.316;21.166;2024-03-07T05:02:44;-0.20;1.00
25208;DHT22;13153;52.316;21.166;2024-03-07T05:05:11;-0.20;1.00
25208;DHT22;13153;52.316;21.166;2024-03-07T05:07:38;-0.10;1.00
25208;DHT22;13153;52.316;21.166;2024-03-07T05:10:06;0.00;1.00
25208;DHT22;13153;52.316;21.166;2024-03-07T05:12:32;0.00;1.00
25208;DHT22;13153;52.316;21.166;2024-03-07T05:14:59;0.10;1.00
25208;DHT22;13153;52.316;21.166;2024-03-07T05:17:25;0.10;1.00
25208;DHT22;13153;52.316;21.166;2024-03-07T05:19:50;0.00;1.00
25208;DHT22;13153;52.316;21.166;2024-03-07T05:22:16;0.00;1.00
25208;DHT22;13153;52.316;21.166;2024-03-07T05:24:43;0.00;1.00
25208;DHT22;13153;52.316;21.166;2024-03-07T05:27:09;0.10;1.00
25208;DHT22;13153;52.316;21.166;2024-03-07T05:29:38;0.30;1.00
25208;DHT22;13153;52.316;21.166;2024-03-07T05:34:48;0.60;1.00
25208;DHT22;13153;52.316;21.166;2024-03-07T05:37:14;0.60;99.90
25208;DHT22;13153;52.316;21.166;2024-03-07T05:39:39;0.70;99.90
25208;DHT22;13153;52.316;21.166;2024-03-07T05:42:06;0.70;1.00
25208;DHT22;13153;52.316;21.166;2024-03-07T05:44:32;0.80;1.00
25208;DHT22;13153;52.316;21.166;2024-03-07T05:46:58;0.80;1.00
25208;DHT22;13153;52.316;21.166;2024-03-07T05:49:24;0.90;99.90
25208;DHT22;13153;52.316;21.166;2024-03-07T05:51:50;0.90;99.90
25208;DHT22;13153;52.316;21.166;2024-03-07T05:54:16;1.00;99.90
25208;DHT22;13153;52.316;21.166;2024-03-07T05:56:42;1.10;1.00
25208;DHT22;13153;52.316;21.166;2024-03-07T05:59:09;1.00;1.00
25208;DHT22;13153;52.316;21.166;2024-03-07T06:01:38;1.20;1.00
25208;DHT22;13153;52.316;21.166;2024-03-07T06:04:07;1.20;99.90
25208;DHT22;13153;52.316;21.166;2024-03-07T06:06:34;1.30;97.90
25208;DHT22;13153;52.316;21.166;2024-03-07T06:09:08;1.50;99.90
25208;DHT22;13153;52.316;21.166;2024-03-07T06:11:36;1.50;99.90
25208;DHT22;13153;52.316;21.166;2024-03-07T06:14:04;1.60;1.00
25208;DHT22;13153;52.316;21.166;2024-03-07T06:16:31;1.90;99.90
25208;DHT22;13153;52.316;21.166;2024-03-07T06:19:02;2.30;1.00
25208;DHT22;13153;52.316;21.166;2024-03-07T06:21:29;2.30;1.00
25208;DHT22;13153;52.316;21.166;2024-03-07T06:24:01;2.50;1.00
25208;DHT22;13153;52.316;21.166;2024-03-07T06:26:29;2.80;1.00
25208;DHT22;13153;52.316;21.166;2024-03-07T06:29:06;2.90;1.20
25208;DHT22;13153;52.316;21.166;2024-03-07T06:31:33;3.00;1.00
25208;DHT22;13153;52.316;21.166;2024-03-07T06:34:00;2.70;99.90
25208;DHT22;13153;52.316;21.166;2024-03-07T06:36:26;2.80;1.00
25208;DHT22;13153;52.316;21.166;2024-03-07T06:38:51;2.80;1.00
25208;DHT22;13153;52.316;21.166;2024-03-07T06:41:17;2.90;99.90
25208;DHT22;13153;52.316;21.166;2024-03-07T06:43:43;2.90;99.90
25208;DHT22;13153;52.316;21.166;2024-03-07T06:46:13;2.90;99.90
25208;DHT22;13153;52.316;21.166;2024-03-07T06:48:41;3.00;99.90
25208;DHT22;13153;52.316;21.166;2024-03-07T06:51:08;3.10;99.10
25208;DHT22;13153;52.316;21.166;2024-03-07T06:53:34;3.10;1.00
25208;DHT22;13153;52.316;21.166;2024-03-07T06:56:00;3.00;80.20
25208;DHT22;13153;52.316;21.166;2024-03-07T06:58:26;3.10;96.40
25208;DHT22;13153;52.316;21.166;2024-03-07T07:00:53;3.10;1.00
25208;DHT22;13153;52.316;21.166;2024-03-07T07:03:20;3.30;1.00
25208;DHT22;13153;52.316;21.166;2024-03-07T07:05:48;3.40;1.00
25208;DHT22;13153;52.316;21.166;2024-03-07T07:08:14;3.50;1.00
25208;DHT22;13153;52.316;21.166;2024-03-07T07:10:40;3.60;1.00
25208;DHT22;13153;52.316;21.166;2024-03-07T07:13:06;3.60;1.00
25208;DHT22;13153;52.316;21.166;2024-03-07T07:15:32;3.50;1.00
25208;DHT22;13153;52.316;21.166;2024-03-07T07:17:58;3.70;99.90
25208;DHT22;13153;52.316;21.166;2024-03-07T07:20:24;3.50;1.00
25208;DHT22;13153;52.316;21.166;2024-03-07T07:22:51;3.80;99.90
25208;DHT22;13153;52.316;21.166;2024-03-07T07:25:18;4.00;99.90
25208;DHT22;13153;52.316;21.166;2024-03-07T07:27:50;4.00;97.70
25208;DHT22;13153;52.316;21.166;2024-03-07T07:30:18;3.90;99.90
25208;DHT22;13153;52.316;21.166;2024-03-07T07:32:49;3.90;69.10
25208;DHT22;13153;52.316;21.166;2024-03-07T07:35:16;4.10;99.90
25208;DHT22;13153;52.316;21.166;2024-03-07T07:37:43;3.90;4.30
25208;DHT22;13153;52.316;21.166;2024-03-07T07:40:17;3.80;1.00
25208;DHT22;13153;52.316;21.166;2024-03-07T07:42:51;3.70;1.00
25208;DHT22;13153;52.316;21.166;2024-03-07T07:45:19;3.70;1.00
25208;DHT22;13153;52.316;21.166;2024-03-07T07:47:52;3.70;1.00
25208;DHT22;13153;52.316;21.166;2024-03-07T07:50:20;3.50;1.00
25208;DHT22;13153;52.316;21.166;2024-03-07T07:52:52;3.40;1.00
25208;DHT22;13153;52.316;21.166;2024-03-07T07:55:23;3.50;1.00
25208;DHT22;13153;52.316;21.166;2024-03-07T07:57:51;3.50;1.00
25208;DHT22;13153;52.316;21.166;2024-03-07T08:00:27;3.40;1.00
25208;DHT22;13153;52.316;21.166;2024-03-07T08:02:58;3.60;1.00
25208;DHT22;13153;52.316;21.166;2024-03-07T08:05:27;3.70;1.00
25208;DHT22;13153;52.316;21.166;2024-03-07T08:08:00;3.60;1.00
25208;DHT22;13153;52.316;21.166;2024-03-07T08:10:30;3.60;1.00
25208;DHT22;13153;52.316;21.166;2024-03-07T08:13:00;3.60;1.00
25208;DHT22;13153;52.316;21.166;2024-03-07T08:15:28;3.60;1.00
25208;DHT22;13153;52.316;21.166;2024-03-07T08:17:55;3.60;1.00
25208;DHT22;13153;52.316;21.166;2024-03-07T08:20:23;3.70;1.00
25208;DHT22;13153;52.316;21.166;2024-03-07T08:22:51;3.80;1.00
25208;DHT22;13153;52.316;21.166;2024-03-07T08:25:23;4.00;1.00
25208;DHT22;13153;52.316;21.166;2024-03-07T08:27:52;4.00;1.00
25208;DHT22;13153;52.316;21.166;2024-03-07T08:30:19;4.20;1.00
25208;DHT22;13153;52.316;21.166;2024-03-07T08:32:50;4.20;1.00
25208;DHT22;13153;52.316;21.166;2024-03-07T08:35:18;4.20;1.00
25208;DHT22;13153;52.316;21.166;2024-03-07T08:37:49;4.40;1.00
25208;DHT22;13153;52.316;21.166;2024-03-07T08:40:19;4.50;1.00
25208;DHT22;13153;52.316;21.166;2024-03-07T08:42:48;4.70;1.00
25208;DHT22;13153;52.316;21.166;2024-03-07T08:45:19;4.60;1.00
25208;DHT22;13153;52.316;21.166;2024-03-07T08:47:46;4.60;1.00
25208;DHT22;13153;52.316;21.166;2024-03-07T08:50:14;4.40;1.00
25208;DHT22;13153;52.316;21.166;2024-03-07T08:52:41;4.40;1.00
25208;DHT22;13153;52.316;21.166;2024-03-07T08:55:09;4.60;1.00
25208;DHT22;13153;52.316;21.166;2024-03-07T08:57:35;4.40;1.00
25208;DHT22;13153;52.316;21.166;2024-03-07T09:00:05;4.40;1.00
25208;DHT22;13153;52.316;21.166;2024-03-07T09:02:37;4.50;1.00
25208;DHT22;13153;52.316;21.166;2024-03-07T09:05:05;4.40;1.00
25208;DHT22;13153;52.316;21.166;2024-03-07T09:07:32;4.40;1.00
25208;DHT22;13153;52.316;21.166;2024-03-07T09:09:58;4.40;1.00
25208;DHT22;13153;52.316;21.166;2024-03-07T09:12:24;4.50;1.00
25208;DHT22;13153;52.316;21.166;2024-03-07T09:14:51;4.50;1.00
25208;DHT22;13153;52.316;21.166;2024-03-07T09:17:23;4.40;1.00
25208;DHT22;13153;52.316;21.166;2024-03-07T09:19:49;4.50;1.00
25208;DHT22;13153;52.316;21.166;2024-03-07T09:22:15;4.60;1.00
25208;DHT22;13153;52.316;21.166;2024-03-07T09:24:41;4.70;1.00
25208;DHT22;13153;52.316;21.166;2024-03-07T09:27:07;5.00;1.00
25208;DHT22;13153;52.316;21.166;2024-03-07T09:29:33;5.10;1.00
25208;DHT22;13153;52.316;21.166;2024-03-07T09:31:59;5.00;1.00
25208;DHT22;13153;52.316;21.166;2024-03-07T09:34:25;4.80;1.00
25208;DHT22;13153;52.316;21.166;2024-03-07T09:36:54;4.70;1.00
25208;DHT22;13153;52.316;21.166;2024-03-07T09:39:19;4.70;1.00
25208;DHT22;13153;52.316;21.166;2024-03-07T09:41:45;4.90;1.00
25208;DHT22;13153;52.316;21.166;2024-03-07T09:44:18;4.90;1.00
25208;DHT22;13153;52.316;21.166;2024-03-07T09:46:50;5.20;1.00
25208;DHT22;13153;52.316;21.166;2024-03-07T09:49:18;5.40;1.00
25208;DHT22;13153;52.316;21.166;2024-03-07T09:51:46;5.40;1.00
25208;DHT22;13153;52.316;21.166;2024-03-07T09:54:12;5.30;1.00
25208;DHT22;13153;52.316;21.166;2024-03-07T09:56:41;5.00;1.00
25208;DHT22;13153;52.316;21.166;2024-03-07T09:59:12;4.80;1.00
25208;DHT22;13153;52.316;21.166;2024-03-07T10:01:39;4.50;1.00
25208;DHT22;13153;52.316;21.166;2024-03-07T10:04:11;4.70;1.00
25208;DHT22;13153;52.316;21.166;2024-03-07T10:06:40;4.70;1.00
25208;DHT22;13153;52.316;21.166;2024-03-07T10:09:10;4.70;1.00
25208;DHT22;13153;52.316;21.166;2024-03-07T10:11:40;4.70;1.00
25208;DHT22;13153;52.316;21.166;2024-03-07T10:14:09;4.80;1.00
25208;DHT22;13153;52.316;21.166;2024-03-07T10:16:36;4.80;1.00
25208;DHT22;13153;52.316;21.166;2024-03-07T10:19:05;4.80;1.00
25208;DHT22;13153;52.316;21.166;2024-03-07T10:21:33;4.80;1.00
25208;DHT22;13153;52.316;21.166;2024-03-07T10:24:07;4.90;1.00
25208;DHT22;13153;52.316;21.166;2024-03-07T10:26:35;4.80;1.00
25208;DHT22;13153;52.316;21.166;2024-03-07T10:29:03;4.90;1.00
25208;DHT22;13153;52.316;21.166;2024-03-07T10:31:32;5.00;1.00
25208;DHT22;13153;52.316;21.166;2024-03-07T10:33:59;5.10;1.00
25208;DHT22;13153;52.316;21.166;2024-03-07T10:36:30;5.30;1.00
25208;DHT22;13153;52.316;21.166;2024-03-07T10:38:58;5.50;1.00
25208;DHT22;13153;52.316;21.166;2024-03-07T10:41:48;5.40;1.00
25208;DHT22;13153;52.316;21.166;2024-03-07T10:44:36;5.10;1.00
25208;DHT22;13153;52.316;21.166;2024-03-07T10:47:08;5.20;1.00
25208;DHT22;13153;52.316;21.166;2024-03-07T10:50:09;5.30;1.00
25208;DHT22;13153;52.316;21.166;2024-03-07T10:52:54;5.60;1.00
25208;DHT22;13153;52.316;21.166;2024-03-07T10:55:40;5.70;1.00
25208;DHT22;13153;52.316;21.166;2024-03-07T10:58:27;5.80;1.00
25208;DHT22;13153;52.316;21.166;2024-03-07T11:00:58;5.90;1.00
25208;DHT22;13153;52.316;21.166;2024-03-07T11:03:30;5.90;1.00
25208;DHT22;13153;52.316;21.166;2024-03-07T11:05:59;5.80;1.00
25208;DHT22;13153;52.316;21.166;2024-03-07T11:08:31;5.40;1.00
25208;DHT22;13153;52.316;21.166;2024-03-07T11:10:57;5.40;1.00
25208;DHT22;13153;52.316;21.166;2024-03-07T11:13:23;5.30;1.00
25208;DHT22;13153;52.316;21.166;2024-03-07T11:15:50;5.10;1.00
25208;DHT22;13153;52.316;21.166;2024-03-07T11:18:19;5.10;1.00
25208;DHT22;13153;52.316;21.166;2024-03-07T11:20:46;5.20;1.00
25208;DHT22;13153;52.316;21.166;2024-03-07T11:25:55;5.40;1.00
25208;DHT22;13153;52.316;21.166;2024-03-07T11:28:28;5.40;1.00
25208;DHT22;13153;52.316;21.166;2024-03-07T11:30:54;5.50;1.00
25208;DHT22;13153;52.316;21.166;2024-03-07T11:33:32;5.50;1.00
25208;DHT22;13153;52.316;21.166;2024-03-07T11:35:59;5.60;1.00
25208;DHT22;13153;52.316;21.166;2024-03-07T11:38:31;5.70;1.00
25208;DHT22;13153;52.316;21.166;2024-03-07T11:41:00;5.50;99.90
25208;DHT22;13153;52.316;21.166;2024-03-07T11:43:31;5.60;1.00
25208;DHT22;13153;52.316;21.166;2024-03-07T11:45:59;5.60;1.00
25208;DHT22;13153;52.316;21.166;2024-03-07T11:48:25;5.40;99.90
25208;DHT22;13153;52.316;21.166;2024-03-07T11:50:51;5.40;1.00
25208;DHT22;13153;52.316;21.166;2024-03-07T11:53:16;5.30;1.00
25208;DHT22;13153;52.316;21.166;2024-03-07T11:55:43;5.20;99.90
25208;DHT22;13153;52.316;21.166;2024-03-07T11:58:20;5.20;1.00
25208;DHT22;13153;52.316;21.166;2024-03-07T12:00:48;5.30;1.00
25208;DHT22;13153;52.316;21.166;2024-03-07T12:03:17;5.40;1.00
25208;DHT22;13153;52.316;21.166;2024-03-07T12:05:49;5.30;1.00
25208;DHT22;13153;52.316;21.166;2024-03-07T12:08:17;5.30;1.00
25208;DHT22;13153;52.316;21.166;2024-03-07T12:10:44;5.40;1.00
25208;DHT22;13153;52.316;21.166;2024-03-07T12:13:11;5.30;1.00
25208;DHT22;13153;52.316;21.166;2024-03-07T12:15:38;5.30;1.00
25208;DHT22;13153;52.316;21.166;2024-03-07T12:18:05;5.40;1.00
25208;DHT22;13153;52.316;21.166;2024-03-07T12:20:39;5.40;99.90
25208;DHT22;13153;52.316;21.166;2024-03-07T12:23:07;5.50;99.90
25208;DHT22;13153;52.316;21.166;2024-03-07T12:25:37;5.60;99.90
25208;DHT22;13153;52.316;21.166;2024-03-07T12:28:11;5.50;99.90
25208;DHT22;13153;52.316;21.166;2024-03-07T12:33:20;5.60;99.90
25208;DHT22;13153;52.316;21.166;2024-03-07T12:35:49;5.40;99.90
25208;DHT22;13153;52.316;21.166;2024-03-07T12:38:20;5.50;1.00
25208;DHT22;13153;52.316;21.166;2024-03-07T12:41:02;5.50;99.90
25208;DHT22;13153;52.316;21.166;2024-03-07T12:43:33;5.50;99.90
25208;DHT22;13153;52.316;21.166;2024-03-07T12:46:00;5.40;99.90
25208;DHT22;13153;52.316;21.166;2024-03-07T12:48:26;5.40;1.00
25208;DHT22;13153;52.316;21.166;2024-03-07T12:50:52;5.30;99.90
25208;DHT22;13153;52.316;21.166;2024-03-07T12:53:25;5.40;99.90
25208;DHT22;13153;52.316;21.166;2024-03-07T12:55:52;5.40;99.90
25208;DHT22;13153;52.316;21.166;2024-03-07T12:58:18;5.50;99.90
25208;DHT22;13153;52.316;21.166;2024-03-07T13:00:45;5.50;99.90
25208;DHT22;13153;52.316;21.166;2024-03-07T13:03:12;5.60;99.90
25208;DHT22;13153;52.316;21.166;2024-03-07T13:05:40;5.60;99.90
25208;DHT22;13153;52.316;21.166;2024-03-07T13:08:08;5.60;99.90
25208;DHT22;13153;52.316;21.166;2024-03-07T13:10:39;5.60;99.90
25208;DHT22;13153;52.316;21.166;2024-03-07T13:13:07;5.60;99.90
25208;DHT22;13153;52.316;21.166;2024-03-07T13:15:35;5.60;99.90
25208;DHT22;13153;52.316;21.166;2024-03-07T13:18:03;5.60;99.90
25208;DHT22;13153;52.316;21.166;2024-03-07T13:20:30;5.60;99.90
25208;DHT22;13153;52.316;21.166;2024-03-07T13:22:57;5.60;99.90
25208;DHT22;13153;52.316;21.166;2024-03-07T13:25:26;5.70;99.90
25208;DHT22;13153;52.316;21.166;2024-03-07T13:30:26;5.70;99.90
25208;DHT22;13153;52.316;21.166;2024-03-07T13:32:56;5.70;99.90
25208;DHT22;13153;52.316;21.166;2024-03-07T13:35:26;5.70;99.90
25208;DHT22;13153;52.316;21.166;2024-03-07T13:37:53;5.70;99.90
25208;DHT22;13153;52.316;21.166;2024-03-07T13:40:26;5.70;99.90
25208;DHT22;13153;52.316;21.166;2024-03-07T13:42:59;5.70;99.90
25208;DHT22;13153;52.316;21.166;2024-03-07T13:45:28;5.70;99.90
25208;DHT22;13153;52.316;21.166;2024-03-07T13:47:57;5.80;99.90
25208;DHT22;13153;52.316;21.166;2024-03-07T13:50:27;5.90;99.90
25208;DHT22;13153;52.316;21.166;2024-03-07T13:52:55;5.80;99.90
25208;DHT22;13153;52.316;21.166;2024-03-07T13:55:49;5.80;99.90
25208;DHT22;13153;52.316;21.166;2024-03-07T14:04:32;5.80;99.90
25208;DHT22;13153;52.316;21.166;2024-03-07T14:13:44;5.90;99.90
25208;DHT22;13153;52.316;21.166;2024-03-07T14:17:13;6.00;99.90
25208;DHT22;13153;52.316;21.166;2024-03-07T14:29:37;5.80;99.90
25208;DHT22;13153;52.316;21.166;2024-03-07T14:32:17;5.70;99.90
25208;DHT22;13153;52.316;21.166;2024-03-07T14:34:57;5.80;99.90
25208;DHT22;13153;52.316;21.166;2024-03-07T14:37:28;5.90;99.90
25208;DHT22;13153;52.316;21.166;2024-03-07T14:40:09;6.00;99.90
25208;DHT22;13153;52.316;21.166;2024-03-07T14:42:44;6.10;99.90
25208;DHT22;13153;52.316;21.166;2024-03-07T14:45:15;6.00;99.90
25208;DHT22;13153;52.316;21.166;2024-03-07T14:47:47;6.00;99.90
25208;DHT22;13153;52.316;21.166;2024-03-07T14:50:18;6.00;99.90
25208;DHT22;13153;52.316;21.166;2024-03-07T14:52:46;6.00;99.90
25208;DHT22;13153;52.316;21.166;2024-03-07T14:55:13;6.00;99.90
25208;DHT22;13153;52.316;21.166;2024-03-07T14:57:40;5.90;99.90
25208;DHT22;13153;52.316;21.166;2024-03-07T15:00:07;5.90;99.90
25208;DHT22;13153;52.316;21.166;2024-03-07T15:02:47;6.00;99.90
25208;DHT22;13153;52.316;21.166;2024-03-07T15:05:15;5.90;99.90
25208;DHT22;13153;52.316;21.166;2024-03-07T15:07:42;5.90;99.90
25208;DHT22;13153;52.316;21.166;2024-03-07T15:10:18;6.00;99.90
25208;DHT22;13153;52.316;21.166;2024-03-07T15:12:49;5.90;99.90
25208;DHT22;13153;52.316;21.166;2024-03-07T15:15:16;6.00;99.90
25208;DHT22;13153;52.316;21.166;2024-03-07T15:17:45;5.90;99.90
25208;DHT22;13153;52.316;21.166;2024-03-07T15:20:12;5.90;99.90
25208;DHT22;13153;52.316;21.166;2024-03-07T15:22:56;5.90;99.90
25208;DHT22;13153;52.316;21.166;2024-03-07T15:25:24;5.90;99.90
25208;DHT22;13153;52.316;21.166;2024-03-07T15:27:52;5.90;99.90
25208;DHT22;13153;52.316;21.166;2024-03-07T15:30:19;5.90;99.90
25208;DHT22;13153;52.316;21.166;2024-03-07T15:32:46;5.90;99.90
25208;DHT22;13153;52.316;21.166;2024-03-07T15:35:13;5.90;99.90
25208;DHT22;13153;52.316;21.166;2024-03-07T15:37:49;5.80;99.90
25208;DHT22;13153;52.316;21.166;2024-03-07T15:40:19;5.80;99.90
25208;DHT22;13153;52.316;21.166;2024-03-07T15:42:50;5.80;99.90
25208;DHT22;13153;52.316;21.166;2024-03-07T15:45:19;5.80;99.90
25208;DHT22;13153;52.316;21.166;2024-03-07T15:47:49;5.80;99.90
25208;DHT22;13153;52.316;21.166;2024-03-07T15:50:19;5.80;99.90
25208;DHT22;13153;52.316;21.166;2024-03-07T15:52:48;5.80;99.90
25208;DHT22;13153;52.316;21.166;2024-03-07T15:55:18;5.80;99.90
25208;DHT22;13153;52.316;21.166;2024-03-07T15:57:51;5.70;99.90
25208;DHT22;13153;52.316;21.166;2024-03-07T16:00:25;5.80;99.90
25208;DHT22;13153;52.316;21.166;2024-03-07T16:02:57;5.80;99.90
25208;DHT22;13153;52.316;21.166;2024-03-07T16:05:27;5.80;99.90
25208;DHT22;13153;52.316;21.166;2024-03-07T16:07:55;5.80;99.90
25208;DHT22;13153;52.316;21.166;2024-03-07T16:10:23;5.70;99.90
25208;DHT22;13153;52.316;21.166;2024-03-07T16:12:53;5.70;1.00
25208;DHT22;13153;52.316;21.166;2024-03-07T16:15:20;5.60;99.90
25208;DHT22;13153;52.316;21.166;2024-03-07T16:17:55;5.60;99.90
25208;DHT22;13153;52.316;21.166;2024-03-07T16:20:27;5.60;99.90
25208;DHT22;13153;52.316;21.166;2024-03-07T16:22:54;5.70;1.00